Catterick Garrison, United Kingdom
Current Conditions -  °F | °C
As of 5:50 AM on Friday 19 Dec 2014 (Local Time) from EGXE Reporting Station
Clear Clear  
Wind Chill: 34°   Ceiling: Unl
Heat Index: 43°   Visibility: 6mi
Dew Point: 37°   Wind: 22mph
Humidity: 81%   Direction: 260°W
Pressure: 29.59"   Gusts: NA
Location:  54.38°N, 1.74°W
Report Text: EGXE 190550Z 26019KT CAVOK 06/03 Q1002 BLU
Loading
Personal Weather Stations






























Interactive Weather Map New forecast layout! Learn more

10-Day Weather Forecast

Advertisements
Track Severe Weather on mobile